createdAt,value
2022-09-03T00:02:20.768Z,50.63
2022-09-03T00:05:05.254Z,54.70
2022-09-03T00:08:05.885Z,57.67
2022-09-03T00:10:53.375Z,56.17
2022-09-03T00:13:42.962Z,54.60
2022-09-03T00:16:22.848Z,56.17
2022-09-03T00:18:58.924Z,52.07
2022-09-03T00:21:50.068Z,53.97
2022-09-03T00:24:30.872Z,50.53
2022-09-03T00:27:08.030Z,53.37
2022-09-03T00:30:01.457Z,53.33
2022-09-03T00:33:13.849Z,51.27
2022-09-03T00:36:03.517Z,50.13
2022-09-03T00:38:37.809Z,54.57
2022-09-03T00:41:24.298Z,52.67
2022-09-03T00:44:14.860Z,53.63
2022-09-03T00:47:00.344Z,52.77
2022-09-03T00:49:37.588Z,51.20
2022-09-03T00:52:26.790Z,53.97
2022-09-03T00:55:31.898Z,53.03
2022-09-03T00:58:25.240Z,54.50
2022-09-03T01:00:57.006Z,52.40
2022-09-03T01:03:51.266Z,51.70
2022-09-03T01:06:55.663Z,54.63
2022-09-03T01:09:53.900Z,53.57
2022-09-03T01:12:42.069Z,52.30
2022-09-03T01:15:27.103Z,53.27
2022-09-03T01:18:19.088Z,55.10
2022-09-03T01:21:13.545Z,54.40
2022-09-03T01:24:36.675Z,52.67
2022-09-03T01:27:58.528Z,54.07
2022-09-03T01:30:34.384Z,54.73
2022-09-03T01:33:24.285Z,54.07
2022-09-03T01:36:24.684Z,54.70
2022-09-03T01:39:06.911Z,55.67
2022-09-03T01:42:12.525Z,53.57
2022-09-03T01:45:06.365Z,54.03
2022-09-03T01:48:06.251Z,51.07
2022-09-03T01:51:19.534Z,50.67
2022-09-03T01:54:21.229Z,56.07
2022-09-03T01:57:35.212Z,55.87
2022-09-03T02:00:13.262Z,54.50
2022-09-03T02:02:49.170Z,51.63
2022-09-03T02:05:28.174Z,53.00
2022-09-03T02:08:02.903Z,51.90
2022-09-03T02:10:45.711Z,49.90
2022-09-03T02:13:24.679Z,53.67
2022-09-03T02:16:00.181Z,52.63
2022-09-03T02:18:39.072Z,52.93
2022-09-03T02:21:10.833Z,53.07
2022-09-03T02:23:42.712Z,50.93
2022-09-03T02:26:18.694Z,51.33
2022-09-03T02:28:52.018Z,54.57
2022-09-03T02:31:24.225Z,52.37
2022-09-03T02:33:57.890Z,51.57
2022-09-03T02:36:36.116Z,52.67
2022-09-03T02:39:07.756Z,54.10
2022-09-03T02:41:39.627Z,52.67
2022-09-03T02:44:23.952Z,51.47
2022-09-03T02:47:00.697Z,53.50
2022-09-03T02:49:32.954Z,50.30
2022-09-03T02:52:09.844Z,53.20
2022-09-03T02:54:41.844Z,52.30
2022-09-03T02:57:15.817Z,56.37
2022-09-03T02:59:47.412Z,56.85
2022-09-03T03:02:19.072Z,53.30
2022-09-03T03:04:50.869Z,49.80
2022-09-03T03:07:22.568Z,61.93
2022-09-03T03:09:54.493Z,51.80
2022-09-03T03:12:26.464Z,52.67
2022-09-03T03:14:58.072Z,50.33
2022-09-03T03:17:29.825Z,49.97
2022-09-03T03:20:03.681Z,50.53
2022-09-03T03:22:35.713Z,51.03
2022-09-03T03:25:07.913Z,54.13
2022-09-03T03:27:41.877Z,55.33
2022-09-03T03:30:14.176Z,57.10
2022-09-03T03:32:45.814Z,51.60
2022-09-03T03:35:17.465Z,52.07
2022-09-03T03:37:49.104Z,50.53
2022-09-03T03:40:20.728Z,59.77
2022-09-03T03:42:54.613Z,53.57
2022-09-03T03:45:26.375Z,63.05
2022-09-03T03:47:59.321Z,58.07
2022-09-03T03:50:33.881Z,56.20
2022-09-03T03:53:05.468Z,60.67
2022-09-03T03:55:39.715Z,57.73
2022-09-03T03:58:11.377Z,66.93
2022-09-03T04:00:42.990Z,60.63
2022-09-03T04:03:14.681Z,62.07
2022-09-03T04:05:57.695Z,57.80
2022-09-03T04:08:29.774Z,58.67
2022-09-03T04:11:03.100Z,62.17
2022-09-03T04:13:37.456Z,59.57
2022-09-03T04:16:18.547Z,64.13
2022-09-03T04:18:52.298Z,61.23
2022-09-03T04:21:29.386Z,62.50
2022-09-03T04:24:00.980Z,62.53
2022-09-03T04:26:33.466Z,66.00
2022-09-03T04:29:08.176Z,63.07
2022-09-03T04:32:01.710Z,64.33
2022-09-03T04:34:33.396Z,64.10
2022-09-03T04:37:05.021Z,64.53
2022-09-03T04:39:36.690Z,65.03
2022-09-03T04:42:08.263Z,64.40
2022-09-03T04:44:41.147Z,66.80
2022-09-03T04:47:15.476Z,65.33
2022-09-03T04:49:47.382Z,62.53
2022-09-03T04:52:19.495Z,67.80
2022-09-03T04:54:51.435Z,62.17
2022-09-03T04:57:23.169Z,62.37
2022-09-03T04:59:55.441Z,62.43
2022-09-03T05:02:28.352Z,60.00
2022-09-03T05:05:00.018Z,62.27
2022-09-03T05:07:38.799Z,64.30
2022-09-03T05:10:16.127Z,63.53
2022-09-03T05:12:49.909Z,66.13
2022-09-03T05:15:21.591Z,67.68
2022-09-03T05:17:57.612Z,66.43
2022-09-03T05:20:30.974Z,61.47
2022-09-03T05:23:03.917Z,64.53
2022-09-03T05:25:35.992Z,68.50
2022-09-03T05:28:07.705Z,65.33
2022-09-03T05:30:39.286Z,68.30
2022-09-03T05:33:10.912Z,67.97
2022-09-03T05:35:42.521Z,70.87
2022-09-03T05:38:15.884Z,69.23
2022-09-03T05:40:47.816Z,69.10
2022-09-03T05:43:21.037Z,69.80
2022-09-03T05:45:56.840Z,73.93
2022-09-03T05:48:33.350Z,74.97
2022-09-03T05:51:10.109Z,77.70
2022-09-03T05:53:45.131Z,71.27
2022-09-03T05:56:19.266Z,71.37
2022-09-03T05:58:53.587Z,74.15
2022-09-03T06:01:28.657Z,80.30
2022-09-03T06:04:02.955Z,74.13
2022-09-03T06:06:37.178Z,73.25
2022-09-03T06:09:11.191Z,72.75
2022-09-03T06:11:42.853Z,75.70
2022-09-03T06:14:14.821Z,81.53
2022-09-03T06:16:49.813Z,78.43
2022-09-03T06:19:21.606Z,79.20
2022-09-03T06:21:55.232Z,79.23
2022-09-03T06:24:28.643Z,79.38
2022-09-03T06:27:00.427Z,74.30
2022-09-03T06:29:32.043Z,75.30
2022-09-03T06:32:05.026Z,76.23
2022-09-03T06:34:36.769Z,75.20
2022-09-03T06:37:08.421Z,75.53
2022-09-03T06:39:40.038Z,77.90
2022-09-03T06:42:12.320Z,78.83
2022-09-03T06:44:46.699Z,77.10
2022-09-03T06:47:18.348Z,78.63
2022-09-03T06:49:49.897Z,78.43
2022-09-03T06:52:22.324Z,82.00
2022-09-03T06:54:53.944Z,82.17
2022-09-03T06:57:25.578Z,2.25
2022-09-03T06:59:57.246Z,2.10
2022-09-03T07:02:28.875Z,2.10
2022-09-03T07:05:00.560Z,2.35
2022-09-03T07:07:32.490Z,2.17
2022-09-03T07:10:04.437Z,1.90
2022-09-03T07:12:37.643Z,2.50
2022-09-03T07:15:09.810Z,2.50
2022-09-03T07:17:41.413Z,2.42
2022-09-03T07:20:13.065Z,2.25
2022-09-03T07:22:44.694Z,2.20
2022-09-03T07:25:16.331Z,2.35
2022-09-03T07:27:51.148Z,2.40
2022-09-03T07:30:23.034Z,2.38
2022-09-03T07:32:55.007Z,2.35
2022-09-03T07:35:27.823Z,36.80
2022-09-03T07:38:00.737Z,112.37
2022-09-03T07:40:33.177Z,109.80
2022-09-03T07:43:06.137Z,110.30
2022-09-03T07:45:39.130Z,101.80
2022-09-03T07:48:10.785Z,105.13
2022-09-03T07:50:42.444Z,103.13
2022-09-03T07:53:17.347Z,104.13
2022-09-03T07:55:49.324Z,104.53
2022-09-03T07:58:24.668Z,108.27
2022-09-03T08:00:57.750Z,107.27
2022-09-03T08:03:29.434Z,105.03
2022-09-03T08:06:06.886Z,101.73
2022-09-03T08:08:39.675Z,108.67
2022-09-03T08:11:15.964Z,105.13
2022-09-03T08:13:57.617Z,106.07
2022-09-03T08:16:34.901Z,106.90
2022-09-03T08:19:07.579Z,105.83
2022-09-03T08:21:42.722Z,105.00
2022-09-03T08:24:16.647Z,99.80
2022-09-03T08:26:52.005Z,107.47
2022-09-03T08:29:23.858Z,106.57
2022-09-03T08:31:59.736Z,107.07
2022-09-03T08:34:31.979Z,103.17
2022-09-03T08:37:03.598Z,106.33
2022-09-03T08:39:35.403Z,104.60
2022-09-03T08:42:28.647Z,105.13
2022-09-03T08:45:08.332Z,107.83
2022-09-03T08:47:43.221Z,103.00
2022-09-03T08:50:29.401Z,103.37
2022-09-03T08:53:12.256Z,100.07
2022-09-03T08:56:19.693Z,98.00
2022-09-03T08:58:51.369Z,91.77
2022-09-03T09:01:33.846Z,94.13
2022-09-03T09:04:24.809Z,98.30
2022-09-03T09:07:14.877Z,99.13
2022-09-03T09:09:54.877Z,93.27
2022-09-03T09:12:58.901Z,94.23
2022-09-03T09:15:43.141Z,87.57
2022-09-03T09:18:56.013Z,89.75
2022-09-03T09:21:30.556Z,90.37
2022-09-03T09:24:06.933Z,88.60
2022-09-03T09:26:41.781Z,88.87
2022-09-03T09:29:14.485Z,83.57
2022-09-03T09:31:46.077Z,88.67
2022-09-03T09:34:17.662Z,92.10
2022-09-03T09:36:56.319Z,91.23
2022-09-03T09:39:27.969Z,92.70
2022-09-03T09:42:10.962Z,87.37
2022-09-03T09:44:45.569Z,85.23
2022-09-03T09:47:28.771Z,87.90
2022-09-03T09:50:02.837Z,84.07
2022-09-03T09:52:34.421Z,91.55
2022-09-03T09:55:14.748Z,89.90
2022-09-03T09:57:46.443Z,96.23
2022-09-03T10:00:18.803Z,91.53
2022-09-03T10:02:54.556Z,91.37
2022-09-03T10:05:32.959Z,90.03
2022-09-03T10:08:26.072Z,91.60
2022-09-03T10:10:57.655Z,93.23
2022-09-03T10:13:41.732Z,98.80
2022-09-03T10:16:28.048Z,94.50
2022-09-03T10:19:06.470Z,96.17
2022-09-03T10:22:03.143Z,95.27
2022-09-03T10:24:59.004Z,97.37
2022-09-03T10:27:32.040Z,98.07
2022-09-03T10:30:07.735Z,95.50
2022-09-03T10:32:59.789Z,97.60
2022-09-03T10:35:35.576Z,104.23
2022-09-03T10:38:26.512Z,103.43
2022-09-03T10:41:28.926Z,101.97
2022-09-03T10:44:21.343Z,102.77
2022-09-03T10:47:14.824Z,104.13
2022-09-03T10:50:01.785Z,101.03
2022-09-03T10:53:15.174Z,104.90
2022-09-03T10:56:01.985Z,102.67
2022-09-03T10:58:52.967Z,102.93
2022-09-03T11:02:00.213Z,105.43
2022-09-03T11:04:54.981Z,103.53
2022-09-03T11:10:31.068Z,102.30
2022-09-03T11:13:09.318Z,104.30
2022-09-03T11:15:54.603Z,105.77
2022-09-03T11:18:33.854Z,111.63
2022-09-03T11:21:12.317Z,114.03
2022-09-03T11:23:47.537Z,112.80
2022-09-03T11:26:23.094Z,105.50
2022-09-03T11:29:25.320Z,110.33
2022-09-03T11:32:16.003Z,105.20
2022-09-03T11:34:54.617Z,106.73
2022-09-03T11:37:30.433Z,110.20
2022-09-03T11:40:19.347Z,104.18
2022-09-03T11:42:51.309Z,108.47
2022-09-03T11:45:30.306Z,104.63
2022-09-03T11:48:02.250Z,102.53
2022-09-03T11:50:34.563Z,103.63
2022-09-03T11:53:13.615Z,100.40
2022-09-03T11:55:55.665Z,101.87
2022-09-03T11:58:35.041Z,101.30
2022-09-03T12:01:18.797Z,103.80
2022-09-03T12:03:57.929Z,99.57
2022-09-03T12:06:43.201Z,101.07
2022-09-03T12:09:28.541Z,92.77
2022-09-03T12:12:18.949Z,97.10
2022-09-03T12:15:02.501Z,98.97
2022-09-03T12:18:12.368Z,94.78
2022-09-03T12:20:44.961Z,94.57
2022-09-03T12:23:44.738Z,96.47
2022-09-03T12:26:19.844Z,95.53
2022-09-03T12:29:00.201Z,92.13
2022-09-03T12:31:45.026Z,90.53
2022-09-03T12:34:18.856Z,91.80
2022-09-03T12:36:53.422Z,91.13
2022-09-03T12:42:25.296Z,94.70
2022-09-03T12:45:06.644Z,89.53
2022-09-03T12:47:43.266Z,86.50
2022-09-03T12:50:21.351Z,91.60
2022-09-03T12:53:03.911Z,93.43
2022-09-03T12:56:01.420Z,93.17
2022-09-03T12:58:40.022Z,93.87
2022-09-03T13:01:17.192Z,94.60
2022-09-03T13:03:54.265Z,92.60
2022-09-03T13:06:30.348Z,93.70
2022-09-03T13:09:06.461Z,91.20
2022-09-03T13:11:38.077Z,92.03
2022-09-03T13:14:14.450Z,92.57
2022-09-03T13:16:46.438Z,91.63
2022-09-03T13:19:42.387Z,90.70
2022-09-03T13:22:26.984Z,90.23
2022-09-03T13:25:17.268Z,90.77
2022-09-03T13:28:27.729Z,87.80
2022-09-03T13:31:08.670Z,92.03
2022-09-03T13:33:45.626Z,91.13
2022-09-03T13:36:21.494Z,88.73
2022-09-03T13:39:23.377Z,84.60
2022-09-03T13:42:06.036Z,87.60
2022-09-03T13:44:48.386Z,90.97
2022-09-03T13:48:15.572Z,90.33
2022-09-03T13:51:14.333Z,90.13
2022-09-03T13:53:55.584Z,86.87
2022-09-03T13:56:44.583Z,86.37
2022-09-03T13:59:29.351Z,88.53
2022-09-03T14:02:19.204Z,84.83
2022-09-03T14:05:10.169Z,87.67
2022-09-03T14:08:09.375Z,85.43
2022-09-03T14:11:16.557Z,84.27
2022-09-03T14:14:07.311Z,90.57
2022-09-03T14:16:45.322Z,87.70
2022-09-03T14:19:29.053Z,89.30
2022-09-03T14:22:09.835Z,86.70
2022-09-03T14:24:49.202Z,86.20
2022-09-03T14:27:39.003Z,89.10
2022-09-03T14:30:16.513Z,84.70
2022-09-03T14:32:56.913Z,86.77
2022-09-03T14:36:03.452Z,88.40
2022-09-03T14:38:46.596Z,85.70
2022-09-03T14:41:33.028Z,89.63
2022-09-03T14:44:17.239Z,90.93
2022-09-03T14:47:21.264Z,90.97
2022-09-03T14:50:19.771Z,88.27
2022-09-03T14:53:29.392Z,90.40
2022-09-03T14:56:21.941Z,91.67
2022-09-03T14:59:12.601Z,91.33
2022-09-03T15:01:50.267Z,87.50
2022-09-03T15:04:51.498Z,86.20
2022-09-03T15:07:49.661Z,83.40
2022-09-03T15:10:45.034Z,86.07
2022-09-03T15:13:19.112Z,83.77
2022-09-03T15:16:09.119Z,87.68
2022-09-03T15:19:16.365Z,86.13
2022-09-03T15:22:11.151Z,84.67
2022-09-03T15:25:09.627Z,88.07
2022-09-03T15:28:23.065Z,88.00
2022-09-03T15:31:02.935Z,86.57
2022-09-03T15:33:51.578Z,85.63
2022-09-03T15:36:27.428Z,84.43
2022-09-03T15:39:24.762Z,85.27
2022-09-03T15:42:04.717Z,83.93
2022-09-03T15:44:48.266Z,83.97
2022-09-03T15:47:50.516Z,86.07
2022-09-03T15:50:57.127Z,83.20
2022-09-03T15:53:36.492Z,83.65
2022-09-03T15:56:15.345Z,88.33
2022-09-03T15:59:03.592Z,85.90
2022-09-03T16:01:46.320Z,91.53
2022-09-03T16:04:27.664Z,89.47
2022-09-03T16:07:24.154Z,84.27
2022-09-03T16:10:25.299Z,92.17
2022-09-03T16:13:41.777Z,90.00
2022-09-03T16:16:24.452Z,85.77
2022-09-03T16:19:23.727Z,89.20
2022-09-03T16:22:34.246Z,84.87
2022-09-03T16:25:17.865Z,82.90
2022-09-03T16:28:10.289Z,84.70
2022-09-03T16:33:45.062Z,87.57
2022-09-03T16:36:32.176Z,83.13
2022-09-03T16:39:31.580Z,83.37
2022-09-03T16:42:26.161Z,84.47
2022-09-03T16:45:09.535Z,81.25
2022-09-03T16:47:59.593Z,84.23
2022-09-03T16:50:58.027Z,82.33
2022-09-03T16:53:35.507Z,86.53
2022-09-03T16:56:14.049Z,80.00
2022-09-03T16:58:52.881Z,84.20
2022-09-03T17:01:52.431Z,81.47
2022-09-03T17:04:28.784Z,84.80
2022-09-03T17:07:38.990Z,81.40
2022-09-03T17:10:44.627Z,84.67
2022-09-03T17:13:25.016Z,81.10
2022-09-03T17:16:26.726Z,85.90
2022-09-03T17:19:23.096Z,83.53
2022-09-03T17:22:35.779Z,85.77
2022-09-03T17:25:39.328Z,84.40
2022-09-03T17:28:24.843Z,80.47
2022-09-03T17:30:56.855Z,84.40
2022-09-03T17:34:13.450Z,84.27
2022-09-03T17:37:24.033Z,82.00
2022-09-03T17:40:03.710Z,80.93
2022-09-03T17:42:56.701Z,84.53
2022-09-03T17:45:53.008Z,81.13
2022-09-03T17:48:42.576Z,80.30
2022-09-03T17:51:51.895Z,82.50
2022-09-03T17:54:23.360Z,81.70
2022-09-03T17:57:05.515Z,75.47
2022-09-03T17:59:56.025Z,80.37
2022-09-03T18:02:36.233Z,79.03
2022-09-03T18:05:18.405Z,76.10
2022-09-03T18:08:00.802Z,76.50
2022-09-03T18:10:46.637Z,74.20
2022-09-03T18:13:47.371Z,72.63
2022-09-03T18:16:31.693Z,73.87
2022-09-03T18:19:30.714Z,72.57
2022-09-03T18:22:24.497Z,71.53
2022-09-03T18:25:18.881Z,73.65
2022-09-03T18:28:29.450Z,67.73
2022-09-03T18:31:19.640Z,70.43
2022-09-03T18:34:09.861Z,67.23
2022-09-03T18:37:00.118Z,69.73
2022-09-03T18:39:50.478Z,70.60
2022-09-03T18:43:09.368Z,68.83
2022-09-03T18:49:45.565Z,64.90
2022-09-03T18:52:44.963Z,68.43
2022-09-03T18:55:56.589Z,64.97
2022-09-03T18:59:13.237Z,66.93
2022-09-03T19:02:03.629Z,67.70
2022-09-03T19:05:15.188Z,112.27
2022-09-03T19:08:46.899Z,62.07
2022-09-03T19:12:05.070Z,66.63
2022-09-03T19:15:17.319Z,113.40
2022-09-03T19:18:46.292Z,68.73
2022-09-03T19:21:59.928Z,66.50
2022-09-03T19:24:50.720Z,67.27
2022-09-03T19:28:21.481Z,62.93
2022-09-03T19:31:45.246Z,65.87
2022-09-03T19:35:04.539Z,63.80
2022-09-03T19:38:06.930Z,62.17
2022-09-03T19:41:19.309Z,62.33
2022-09-03T19:44:45.889Z,65.27
2022-09-03T19:47:58.975Z,63.07
2022-09-03T19:50:59.200Z,65.10
2022-09-03T19:53:52.289Z,63.20
2022-09-03T19:56:47.030Z,65.00
2022-09-03T19:59:39.615Z,64.22
2022-09-03T20:02:29.908Z,62.53
2022-09-03T20:05:25.599Z,58.73
2022-09-03T20:08:17.043Z,66.20
2022-09-03T20:10:52.301Z,63.53
2022-09-03T20:13:24.048Z,65.10
2022-09-03T20:16:13.712Z,64.97
2022-09-03T20:19:40.759Z,62.27
2022-09-03T20:22:30.875Z,66.80
2022-09-03T20:25:18.076Z,62.80
2022-09-03T20:27:55.824Z,67.00
2022-09-03T20:30:43.141Z,66.17
2022-09-03T20:33:22.890Z,65.63
2022-09-03T20:36:14.582Z,63.27
2022-09-03T20:39:04.272Z,61.60
2022-09-03T20:41:57.809Z,63.73
2022-09-03T20:44:52.628Z,67.20
2022-09-03T20:47:28.125Z,65.07
2022-09-03T20:50:46.563Z,62.20
2022-09-03T20:53:33.206Z,61.47
2022-09-03T20:56:27.416Z,63.83
2022-09-03T20:59:08.108Z,60.77
2022-09-03T21:01:52.266Z,63.50
2022-09-03T21:04:33.268Z,63.13
2022-09-03T21:07:29.258Z,62.40
2022-09-03T21:10:17.653Z,62.63
2022-09-03T21:13:33.180Z,61.13
2022-09-03T21:16:20.305Z,65.30
2022-09-03T21:19:13.925Z,60.33
2022-09-03T21:22:12.533Z,65.60
2022-09-03T21:24:56.956Z,62.33
2022-09-03T21:27:36.249Z,63.13
2022-09-03T21:30:13.175Z,59.63
2022-09-03T21:32:51.613Z,61.17
2022-09-03T21:35:42.852Z,65.23
2022-09-03T21:38:20.550Z,66.40
2022-09-03T21:41:01.396Z,63.87
2022-09-03T21:43:45.303Z,60.50
2022-09-03T21:46:25.542Z,61.55
2022-09-03T21:49:03.180Z,62.17
2022-09-03T21:51:44.307Z,61.27
2022-09-03T21:54:29.672Z,66.83
2022-09-03T21:57:24.928Z,65.93
2022-09-03T22:02:32.813Z,64.60
2022-09-03T22:05:05.539Z,61.37
2022-09-03T22:07:37.081Z,61.90
2022-09-03T22:10:18.015Z,73.93
2022-09-03T22:13:02.644Z,63.17
2022-09-03T22:15:35.503Z,63.13
2022-09-03T22:18:16.399Z,62.30
2022-09-03T22:20:55.973Z,58.90
2022-09-03T22:23:42.894Z,62.53
2022-09-03T22:26:27.785Z,61.73
2022-09-03T22:34:41.921Z,66.37
2022-09-03T22:37:47.304Z,64.73
2022-09-03T22:40:52.142Z,64.13
2022-09-03T22:43:38.574Z,61.90
2022-09-03T22:46:14.481Z,61.53
2022-09-03T22:49:14.216Z,64.10
2022-09-03T22:52:20.881Z,61.13
2022-09-03T22:55:18.633Z,64.47
2022-09-03T22:58:02.617Z,66.40
2022-09-03T23:00:41.160Z,63.40
2022-09-03T23:03:24.250Z,60.37
2022-09-03T23:06:03.296Z,62.97
2022-09-03T23:08:49.760Z,65.50
2022-09-03T23:11:26.737Z,59.77
2022-09-03T23:14:04.730Z,63.17
2022-09-03T23:16:53.634Z,61.50
2022-09-03T23:19:41.174Z,62.03
2022-09-03T23:22:26.069Z,57.93
2022-09-03T23:27:50.497Z,62.67
2022-09-03T23:30:22.177Z,61.53
2022-09-03T23:32:57.997Z,64.03
2022-09-03T23:35:34.942Z,61.87
2022-09-03T23:38:33.368Z,64.67
2022-09-03T23:41:15.031Z,63.27
2022-09-03T23:44:18.958Z,62.77
2022-09-03T23:47:37.524Z,62.43
2022-09-03T23:50:33.791Z,61.80
2022-09-03T23:53:14.937Z,60.00
2022-09-03T23:56:14.777Z,62.60
2022-09-03T23:59:23.750Z,63.47
